sensor_id;sensor_type;location;lat;lon;timestamp;P1;durP1;ratioP1;P2;durP2;ratioP2
6735;SDS011;3405;50.576;12.364;2023-04-20T00:00:15;2.15;;;1.80;;
6735;SDS011;3405;50.576;12.364;2023-04-20T00:02:41;2.00;;;1.85;;
6735;SDS011;3405;50.576;12.364;2023-04-20T00:05:08;2.40;;;2.20;;
6735;SDS011;3405;50.576;12.364;2023-04-20T00:07:35;1.85;;;1.70;;
6735;SDS011;3405;50.576;12.364;2023-04-20T00:10:01;2.08;;;1.90;;
6735;SDS011;3405;50.576;12.364;2023-04-20T00:12:27;2.53;;;1.65;;
6735;SDS011;3405;50.576;12.364;2023-04-20T00:14:53;1.90;;;1.80;;
6735;SDS011;3405;50.576;12.364;2023-04-20T00:17:20;1.90;;;1.80;;
6735;SDS011;3405;50.576;12.364;2023-04-20T00:19:46;2.00;;;1.77;;
6735;SDS011;3405;50.576;12.364;2023-04-20T00:22:12;1.80;;;1.70;;
6735;SDS011;3405;50.576;12.364;2023-04-20T00:24:38;1.85;;;1.75;;
6735;SDS011;3405;50.576;12.364;2023-04-20T00:27:04;1.95;;;1.80;;
6735;SDS011;3405;50.576;12.364;2023-04-20T00:29:30;1.85;;;1.75;;
6735;SDS011;3405;50.576;12.364;2023-04-20T00:31:56;1.77;;;1.67;;
6735;SDS011;3405;50.576;12.364;2023-04-20T00:34:21;1.88;;;1.63;;
6735;SDS011;3405;50.576;12.364;2023-04-20T00:36:47;2.55;;;1.92;;
6735;SDS011;3405;50.576;12.364;2023-04-20T00:39:13;2.00;;;1.77;;
6735;SDS011;3405;50.576;12.364;2023-04-20T00:41:40;2.05;;;1.80;;
6735;SDS011;3405;50.576;12.364;2023-04-20T00:44:06;1.83;;;1.73;;
6735;SDS011;3405;50.576;12.364;2023-04-20T00:46:35;3.28;;;2.10;;
6735;SDS011;3405;50.576;12.364;2023-04-20T00:49:01;1.88;;;1.70;;
6735;SDS011;3405;50.576;12.364;2023-04-20T00:51:27;2.28;;;2.00;;
6735;SDS011;3405;50.576;12.364;2023-04-20T00:53:53;1.83;;;1.73;;
6735;SDS011;3405;50.576;12.364;2023-04-20T00:56:19;1.80;;;1.70;;
6735;SDS011;3405;50.576;12.364;2023-04-20T00:58:45;1.63;;;1.52;;
6735;SDS011;3405;50.576;12.364;2023-04-20T01:01:12;1.92;;;1.83;;
6735;SDS011;3405;50.576;12.364;2023-04-20T01:03:41;1.60;;;1.50;;
6735;SDS011;3405;50.576;12.364;2023-04-20T01:06:07;2.08;;;1.88;;
6735;SDS011;3405;50.576;12.364;2023-04-20T01:08:33;2.28;;;2.08;;
6735;SDS011;3405;50.576;12.364;2023-04-20T01:10:59;2.38;;;1.90;;
6735;SDS011;3405;50.576;12.364;2023-04-20T01:13:25;2.13;;;1.90;;
6735;SDS011;3405;50.576;12.364;2023-04-20T01:15:51;3.10;;;1.80;;
6735;SDS011;3405;50.576;12.364;2023-04-20T01:18:17;1.80;;;1.70;;
6735;SDS011;3405;50.576;12.364;2023-04-20T01:20:43;2.35;;;1.85;;
6735;SDS011;3405;50.576;12.364;2023-04-20T01:23:11;1.70;;;1.60;;
6735;SDS011;3405;50.576;12.364;2023-04-20T01:25:36;2.03;;;1.90;;
6735;SDS011;3405;50.576;12.364;2023-04-20T01:28:02;1.70;;;1.60;;
6735;SDS011;3405;50.576;12.364;2023-04-20T01:30:29;1.90;;;1.80;;
6735;SDS011;3405;50.576;12.364;2023-04-20T01:32:55;1.63;;;1.52;;
6735;SDS011;3405;50.576;12.364;2023-04-20T01:35:21;2.22;;;1.83;;
6735;SDS011;3405;50.576;12.364;2023-04-20T01:37:47;2.10;;;1.88;;
6735;SDS011;3405;50.576;12.364;2023-04-20T01:40:13;1.85;;;1.60;;
6735;SDS011;3405;50.576;12.364;2023-04-20T01:42:39;2.60;;;1.60;;
6735;SDS011;3405;50.576;12.364;2023-04-20T01:45:05;2.60;;;1.88;;
6735;SDS011;3405;50.576;12.364;2023-04-20T01:47:31;1.80;;;1.70;;
6735;SDS011;3405;50.576;12.364;2023-04-20T01:49:57;1.85;;;1.70;;
6735;SDS011;3405;50.576;12.364;2023-04-20T01:52:23;1.58;;;1.48;;
6735;SDS011;3405;50.576;12.364;2023-04-20T01:54:49;2.08;;;1.88;;
6735;SDS011;3405;50.576;12.364;2023-04-20T01:57:15;3.40;;;2.20;;
6735;SDS011;3405;50.576;12.364;2023-04-20T01:59:41;1.85;;;1.75;;
6735;SDS011;3405;50.576;12.364;2023-04-20T02:02:06;1.88;;;1.70;;
6735;SDS011;3405;50.576;12.364;2023-04-20T02:04:32;1.83;;;1.73;;
6735;SDS011;3405;50.576;12.364;2023-04-20T02:06:58;2.75;;;1.80;;
6735;SDS011;3405;50.576;12.364;2023-04-20T02:09:24;1.80;;;1.70;;
6735;SDS011;3405;50.576;12.364;2023-04-20T02:11:50;3.63;;;1.90;;
6735;SDS011;3405;50.576;12.364;2023-04-20T02:14:16;2.25;;;1.88;;
6735;SDS011;3405;50.576;12.364;2023-04-20T02:16:42;1.80;;;1.70;;
6735;SDS011;3405;50.576;12.364;2023-04-20T02:19:08;1.67;;;1.58;;
6735;SDS011;3405;50.576;12.364;2023-04-20T02:21:34;1.95;;;1.83;;
6735;SDS011;3405;50.576;12.364;2023-04-20T02:24:00;2.35;;;1.50;;
6735;SDS011;3405;50.576;12.364;2023-04-20T02:26:26;1.75;;;1.65;;
6735;SDS011;3405;50.576;12.364;2023-04-20T02:28:52;1.90;;;1.80;;
6735;SDS011;3405;50.576;12.364;2023-04-20T02:31:17;1.90;;;1.80;;
6735;SDS011;3405;50.576;12.364;2023-04-20T02:33:43;2.20;;;2.00;;
6735;SDS011;3405;50.576;12.364;2023-04-20T02:36:11;1.52;;;1.42;;
6735;SDS011;3405;50.576;12.364;2023-04-20T02:38:37;2.38;;;1.80;;
6735;SDS011;3405;50.576;12.364;2023-04-20T02:41:03;3.53;;;1.92;;
6735;SDS011;3405;50.576;12.364;2023-04-20T02:43:29;1.90;;;1.80;;
6735;SDS011;3405;50.576;12.364;2023-04-20T02:45:55;1.80;;;1.70;;
6735;SDS011;3405;50.576;12.364;2023-04-20T02:48:21;1.65;;;1.50;;
6735;SDS011;3405;50.576;12.364;2023-04-20T02:50:47;2.10;;;1.90;;
6735;SDS011;3405;50.576;12.364;2023-04-20T02:53:13;1.90;;;1.70;;
6735;SDS011;3405;50.576;12.364;2023-04-20T02:55:38;2.03;;;1.80;;
6735;SDS011;3405;50.576;12.364;2023-04-20T02:58:04;2.30;;;1.80;;
6735;SDS011;3405;50.576;12.364;2023-04-20T03:00:30;1.90;;;1.80;;
6735;SDS011;3405;50.576;12.364;2023-04-20T03:02:56;1.50;;;1.40;;
6735;SDS011;3405;50.576;12.364;2023-04-20T03:05:22;1.98;;;1.80;;
6735;SDS011;3405;50.576;12.364;2023-04-20T03:07:48;1.60;;;1.40;;
6735;SDS011;3405;50.576;12.364;2023-04-20T03:10:14;1.85;;;1.65;;
6735;SDS011;3405;50.576;12.364;2023-04-20T03:12:40;1.67;;;1.58;;
6735;SDS011;3405;50.576;12.364;2023-04-20T03:15:06;1.70;;;1.60;;
6735;SDS011;3405;50.576;12.364;2023-04-20T03:17:32;4.50;;;1.83;;
6735;SDS011;3405;50.576;12.364;2023-04-20T03:19:58;1.83;;;1.73;;
6735;SDS011;3405;50.576;12.364;2023-04-20T03:22:24;2.70;;;2.05;;
6735;SDS011;3405;50.576;12.364;2023-04-20T03:24:50;1.90;;;1.80;;
6735;SDS011;3405;50.576;12.364;2023-04-20T03:27:17;2.03;;;1.60;;
6735;SDS011;3405;50.576;12.364;2023-04-20T03:29:43;2.33;;;1.80;;
6735;SDS011;3405;50.576;12.364;2023-04-20T03:32:09;1.95;;;1.75;;
6735;SDS011;3405;50.576;12.364;2023-04-20T03:34:35;2.58;;;1.90;;
6735;SDS011;3405;50.576;12.364;2023-04-20T03:37:01;5.97;;;2.50;;
6735;SDS011;3405;50.576;12.364;2023-04-20T03:39:27;6.85;;;2.40;;
6735;SDS011;3405;50.576;12.364;2023-04-20T03:41:52;3.42;;;2.22;;
6735;SDS011;3405;50.576;12.364;2023-04-20T03:44:18;2.72;;;2.17;;
6735;SDS011;3405;50.576;12.364;2023-04-20T03:46:44;18.60;;;4.10;;
6735;SDS011;3405;50.576;12.364;2023-04-20T03:49:10;21.88;;;6.45;;
6735;SDS011;3405;50.576;12.364;2023-04-20T03:51:36;18.02;;;4.88;;
6735;SDS011;3405;50.576;12.364;2023-04-20T03:54:02;18.58;;;4.85;;
6735;SDS011;3405;50.576;12.364;2023-04-20T03:56:29;10.82;;;3.70;;
6735;SDS011;3405;50.576;12.364;2023-04-20T03:58:55;17.08;;;4.00;;
6735;SDS011;3405;50.576;12.364;2023-04-20T04:01:21;9.70;;;3.92;;
6735;SDS011;3405;50.576;12.364;2023-04-20T04:03:47;11.68;;;3.63;;
6735;SDS011;3405;50.576;12.364;2023-04-20T04:06:13;10.30;;;3.90;;
6735;SDS011;3405;50.576;12.364;2023-04-20T04:08:39;9.73;;;3.70;;
6735;SDS011;3405;50.576;12.364;2023-04-20T04:11:05;14.10;;;3.72;;
6735;SDS011;3405;50.576;12.364;2023-04-20T04:13:31;9.80;;;3.88;;
6735;SDS011;3405;50.576;12.364;2023-04-20T04:15:56;9.32;;;3.72;;
6735;SDS011;3405;50.576;12.364;2023-04-20T04:18:22;10.88;;;3.92;;
6735;SDS011;3405;50.576;12.364;2023-04-20T04:20:48;9.32;;;3.47;;
6735;SDS011;3405;50.576;12.364;2023-04-20T04:23:15;9.23;;;3.38;;
6735;SDS011;3405;50.576;12.364;2023-04-20T04:25:41;12.23;;;3.70;;
6735;SDS011;3405;50.576;12.364;2023-04-20T04:28:07;11.98;;;3.95;;
6735;SDS011;3405;50.576;12.364;2023-04-20T04:30:33;11.50;;;4.32;;
6735;SDS011;3405;50.576;12.364;2023-04-20T04:32:59;9.10;;;3.45;;
6735;SDS011;3405;50.576;12.364;2023-04-20T04:35:25;6.53;;;3.63;;
6735;SDS011;3405;50.576;12.364;2023-04-20T04:37:51;10.60;;;3.53;;
6735;SDS011;3405;50.576;12.364;2023-04-20T04:40:18;8.68;;;3.38;;
6735;SDS011;3405;50.576;12.364;2023-04-20T04:42:44;7.03;;;3.03;;
6735;SDS011;3405;50.576;12.364;2023-04-20T04:45:10;6.20;;;3.40;;
6735;SDS011;3405;50.576;12.364;2023-04-20T04:47:37;6.45;;;3.03;;
6735;SDS011;3405;50.576;12.364;2023-04-20T04:50:06;7.78;;;3.28;;
6735;SDS011;3405;50.576;12.364;2023-04-20T04:52:33;5.97;;;3.72;;
6735;SDS011;3405;50.576;12.364;2023-04-20T04:54:59;6.30;;;2.80;;
6735;SDS011;3405;50.576;12.364;2023-04-20T04:57:25;6.80;;;2.97;;
6735;SDS011;3405;50.576;12.364;2023-04-20T04:59:51;6.57;;;3.08;;
6735;SDS011;3405;50.576;12.364;2023-04-20T05:02:17;5.13;;;3.17;;
6735;SDS011;3405;50.576;12.364;2023-04-20T05:04:43;4.88;;;2.70;;
6735;SDS011;3405;50.576;12.364;2023-04-20T05:07:09;5.85;;;2.95;;
6735;SDS011;3405;50.576;12.364;2023-04-20T05:09:35;6.50;;;3.15;;
6735;SDS011;3405;50.576;12.364;2023-04-20T05:12:02;8.93;;;3.20;;
6735;SDS011;3405;50.576;12.364;2023-04-20T05:14:31;6.72;;;3.05;;
6735;SDS011;3405;50.576;12.364;2023-04-20T05:16:57;4.25;;;2.63;;
6735;SDS011;3405;50.576;12.364;2023-04-20T05:19:23;3.58;;;2.55;;
6735;SDS011;3405;50.576;12.364;2023-04-20T05:21:49;4.47;;;2.88;;
6735;SDS011;3405;50.576;12.364;2023-04-20T05:24:15;5.05;;;2.78;;
6735;SDS011;3405;50.576;12.364;2023-04-20T05:26:43;5.40;;;2.78;;
6735;SDS011;3405;50.576;12.364;2023-04-20T05:29:09;5.20;;;2.75;;
6735;SDS011;3405;50.576;12.364;2023-04-20T05:31:35;5.50;;;2.75;;
6735;SDS011;3405;50.576;12.364;2023-04-20T05:34:01;5.43;;;2.53;;
6735;SDS011;3405;50.576;12.364;2023-04-20T05:36:27;6.57;;;2.85;;
6735;SDS011;3405;50.576;12.364;2023-04-20T05:38:54;4.78;;;2.63;;
6735;SDS011;3405;50.576;12.364;2023-04-20T05:41:20;5.70;;;2.72;;
6735;SDS011;3405;50.576;12.364;2023-04-20T05:43:51;3.65;;;2.35;;
6735;SDS011;3405;50.576;12.364;2023-04-20T05:46:16;4.13;;;2.67;;
6735;SDS011;3405;50.576;12.364;2023-04-20T05:48:42;4.43;;;2.70;;
6735;SDS011;3405;50.576;12.364;2023-04-20T05:51:08;3.63;;;2.55;;
6735;SDS011;3405;50.576;12.364;2023-04-20T05:53:34;4.63;;;2.72;;
6735;SDS011;3405;50.576;12.364;2023-04-20T05:56:00;2.88;;;2.53;;
6735;SDS011;3405;50.576;12.364;2023-04-20T05:58:27;4.63;;;2.83;;
6735;SDS011;3405;50.576;12.364;2023-04-20T06:00:53;3.88;;;2.30;;
6735;SDS011;3405;50.576;12.364;2023-04-20T06:03:19;5.57;;;2.83;;
6735;SDS011;3405;50.576;12.364;2023-04-20T06:05:45;3.92;;;2.70;;
6735;SDS011;3405;50.576;12.364;2023-04-20T06:08:10;4.28;;;2.55;;
6735;SDS011;3405;50.576;12.364;2023-04-20T06:10:36;4.38;;;2.65;;
6735;SDS011;3405;50.576;12.364;2023-04-20T06:13:02;4.15;;;2.60;;
6735;SDS011;3405;50.576;12.364;2023-04-20T06:15:28;3.75;;;2.42;;
6735;SDS011;3405;50.576;12.364;2023-04-20T06:17:54;5.82;;;2.78;;
6735;SDS011;3405;50.576;12.364;2023-04-20T06:20:20;3.20;;;2.10;;
6735;SDS011;3405;50.576;12.364;2023-04-20T06:22:46;2.20;;;2.00;;
6735;SDS011;3405;50.576;12.364;2023-04-20T06:25:12;4.15;;;2.35;;
6735;SDS011;3405;50.576;12.364;2023-04-20T06:27:39;3.30;;;2.22;;
6735;SDS011;3405;50.576;12.364;2023-04-20T06:30:05;4.78;;;2.60;;
6735;SDS011;3405;50.576;12.364;2023-04-20T06:32:31;3.88;;;2.45;;
6735;SDS011;3405;50.576;12.364;2023-04-20T06:34:57;3.65;;;2.25;;
6735;SDS011;3405;50.576;12.364;2023-04-20T06:37:23;3.45;;;2.33;;
6735;SDS011;3405;50.576;12.364;2023-04-20T06:39:52;4.88;;;2.65;;
6735;SDS011;3405;50.576;12.364;2023-04-20T06:42:19;3.53;;;2.45;;
6735;SDS011;3405;50.576;12.364;2023-04-20T06:44:45;3.90;;;2.22;;
6735;SDS011;3405;50.576;12.364;2023-04-20T06:47:11;3.15;;;2.50;;
6735;SDS011;3405;50.576;12.364;2023-04-20T06:49:37;3.72;;;2.28;;
6735;SDS011;3405;50.576;12.364;2023-04-20T06:52:03;3.10;;;2.17;;
6735;SDS011;3405;50.576;12.364;2023-04-20T06:54:30;2.65;;;2.22;;
6735;SDS011;3405;50.576;12.364;2023-04-20T06:56:56;2.63;;;2.33;;
6735;SDS011;3405;50.576;12.364;2023-04-20T06:59:22;3.88;;;2.05;;
6735;SDS011;3405;50.576;12.364;2023-04-20T07:01:47;3.45;;;2.55;;
6735;SDS011;3405;50.576;12.364;2023-04-20T07:04:13;3.53;;;2.25;;
6735;SDS011;3405;50.576;12.364;2023-04-20T07:06:39;2.60;;;1.90;;
6735;SDS011;3405;50.576;12.364;2023-04-20T07:09:05;2.22;;;1.88;;
6735;SDS011;3405;50.576;12.364;2023-04-20T07:11:32;4.35;;;2.20;;
6735;SDS011;3405;50.576;12.364;2023-04-20T07:13:58;2.85;;;2.20;;
6735;SDS011;3405;50.576;12.364;2023-04-20T07:16:24;2.80;;;2.00;;
6735;SDS011;3405;50.576;12.364;2023-04-20T07:18:50;2.33;;;2.08;;
6735;SDS011;3405;50.576;12.364;2023-04-20T07:21:16;2.28;;;2.08;;
6735;SDS011;3405;50.576;12.364;2023-04-20T07:23:42;2.75;;;2.10;;
6735;SDS011;3405;50.576;12.364;2023-04-20T07:26:08;3.75;;;2.35;;
6735;SDS011;3405;50.576;12.364;2023-04-20T07:28:34;2.45;;;2.25;;
6735;SDS011;3405;50.576;12.364;2023-04-20T07:31:00;3.05;;;2.30;;
6735;SDS011;3405;50.576;12.364;2023-04-20T07:33:26;2.20;;;1.98;;
6735;SDS011;3405;50.576;12.364;2023-04-20T07:35:53;2.42;;;2.13;;
6735;SDS011;3405;50.576;12.364;2023-04-20T07:38:19;2.42;;;2.13;;
6735;SDS011;3405;50.576;12.364;2023-04-20T07:40:45;2.03;;;1.83;;
6735;SDS011;3405;50.576;12.364;2023-04-20T07:43:11;2.50;;;2.20;;
6735;SDS011;3405;50.576;12.364;2023-04-20T07:45:40;1.98;;;1.77;;
6735;SDS011;3405;50.576;12.364;2023-04-20T07:48:06;2.28;;;2.05;;
6735;SDS011;3405;50.576;12.364;2023-04-20T07:50:33;2.78;;;2.20;;
6735;SDS011;3405;50.576;12.364;2023-04-20T07:52:59;2.35;;;2.15;;
6735;SDS011;3405;50.576;12.364;2023-04-20T07:55:25;3.47;;;2.50;;
6735;SDS011;3405;50.576;12.364;2023-04-20T07:57:51;2.05;;;1.92;;
6735;SDS011;3405;50.576;12.364;2023-04-20T08:00:17;2.13;;;1.80;;
6735;SDS011;3405;50.576;12.364;2023-04-20T08:02:43;1.90;;;1.80;;
6735;SDS011;3405;50.576;12.364;2023-04-20T08:05:09;2.05;;;1.85;;
6735;SDS011;3405;50.576;12.364;2023-04-20T08:07:35;2.40;;;2.20;;
6735;SDS011;3405;50.576;12.364;2023-04-20T08:10:01;2.30;;;2.10;;
6735;SDS011;3405;50.576;12.364;2023-04-20T08:12:27;2.30;;;2.10;;
6735;SDS011;3405;50.576;12.364;2023-04-20T08:14:53;2.50;;;2.30;;
6735;SDS011;3405;50.576;12.364;2023-04-20T08:17:24;2.15;;;1.92;;
6735;SDS011;3405;50.576;12.364;2023-04-20T08:19:50;2.30;;;1.70;;
6735;SDS011;3405;50.576;12.364;2023-04-20T08:22:16;3.90;;;2.30;;
6735;SDS011;3405;50.576;12.364;2023-04-20T08:24:42;2.00;;;1.80;;
6735;SDS011;3405;50.576;12.364;2023-04-20T08:27:08;2.80;;;2.05;;
6735;SDS011;3405;50.576;12.364;2023-04-20T08:29:33;2.28;;;1.88;;
6735;SDS011;3405;50.576;12.364;2023-04-20T08:32:00;2.30;;;2.10;;
6735;SDS011;3405;50.576;12.364;2023-04-20T08:34:26;2.35;;;1.95;;
6735;SDS011;3405;50.576;12.364;2023-04-20T08:36:52;2.17;;;1.98;;
6735;SDS011;3405;50.576;12.364;2023-04-20T08:39:19;2.30;;;1.88;;
6735;SDS011;3405;50.576;12.364;2023-04-20T08:41:46;2.40;;;2.20;;
6735;SDS011;3405;50.576;12.364;2023-04-20T08:44:14;2.85;;;2.00;;
6735;SDS011;3405;50.576;12.364;2023-04-20T08:46:40;2.67;;;1.90;;
6735;SDS011;3405;50.576;12.364;2023-04-20T08:49:08;2.08;;;1.98;;
6735;SDS011;3405;50.576;12.364;2023-04-20T08:51:38;2.20;;;2.00;;
6735;SDS011;3405;50.576;12.364;2023-04-20T08:54:04;3.35;;;2.35;;
6735;SDS011;3405;50.576;12.364;2023-04-20T08:56:34;2.30;;;2.10;;
6735;SDS011;3405;50.576;12.364;2023-04-20T08:59:01;2.20;;;2.00;;
6735;SDS011;3405;50.576;12.364;2023-04-20T09:01:28;2.10;;;1.90;;
6735;SDS011;3405;50.576;12.364;2023-04-20T09:03:54;2.35;;;1.90;;
6735;SDS011;3405;50.576;12.364;2023-04-20T09:06:20;2.13;;;1.92;;
6735;SDS011;3405;50.576;12.364;2023-04-20T09:08:47;2.17;;;1.98;;
6735;SDS011;3405;50.576;12.364;2023-04-20T09:11:19;2.30;;;2.10;;
6735;SDS011;3405;50.576;12.364;2023-04-20T09:13:56;2.20;;;2.00;;
6735;SDS011;3405;50.576;12.364;2023-04-20T09:16:22;2.30;;;2.10;;
6735;SDS011;3405;50.576;12.364;2023-04-20T09:18:51;2.15;;;1.98;;
6735;SDS011;3405;50.576;12.364;2023-04-20T09:21:18;2.47;;;2.20;;
6735;SDS011;3405;50.576;12.364;2023-04-20T09:23:54;3.85;;;2.30;;
6735;SDS011;3405;50.576;12.364;2023-04-20T09:26:20;2.00;;;1.80;;
6735;SDS011;3405;50.576;12.364;2023-04-20T09:28:46;2.00;;;1.90;;
6735;SDS011;3405;50.576;12.364;2023-04-20T09:31:16;2.00;;;1.90;;
6735;SDS011;3405;50.576;12.364;2023-04-20T09:33:42;2.15;;;1.95;;
6735;SDS011;3405;50.576;12.364;2023-04-20T09:36:08;3.08;;;2.40;;
6735;SDS011;3405;50.576;12.364;2023-04-20T09:38:35;2.15;;;1.95;;
6735;SDS011;3405;50.576;12.364;2023-04-20T09:41:00;2.15;;;1.90;;
6735;SDS011;3405;50.576;12.364;2023-04-20T09:43:27;3.65;;;1.70;;
6735;SDS011;3405;50.576;12.364;2023-04-20T09:45:54;2.05;;;1.92;;
6735;SDS011;3405;50.576;12.364;2023-04-20T09:48:20;2.17;;;2.00;;
6735;SDS011;3405;50.576;12.364;2023-04-20T09:50:47;2.15;;;1.95;;
6735;SDS011;3405;50.576;12.364;2023-04-20T09:53:15;2.17;;;1.98;;
6735;SDS011;3405;50.576;12.364;2023-04-20T09:55:45;2.25;;;2.05;;
6735;SDS011;3405;50.576;12.364;2023-04-20T09:58:12;2.42;;;1.95;;
6735;SDS011;3405;50.576;12.364;2023-04-20T10:00:38;2.10;;;1.88;;
6735;SDS011;3405;50.576;12.364;2023-04-20T10:03:04;2.10;;;1.90;;
6735;SDS011;3405;50.576;12.364;2023-04-20T10:05:33;2.22;;;2.10;;
6735;SDS011;3405;50.576;12.364;2023-04-20T10:08:00;2.28;;;2.08;;
6735;SDS011;3405;50.576;12.364;2023-04-20T10:10:26;2.40;;;1.90;;
6735;SDS011;3405;50.576;12.364;2023-04-20T10:12:53;2.05;;;1.95;;
6735;SDS011;3405;50.576;12.364;2023-04-20T10:15:19;2.22;;;2.08;;
6735;SDS011;3405;50.576;12.364;2023-04-20T10:17:49;2.35;;;1.80;;
6735;SDS011;3405;50.576;12.364;2023-04-20T10:20:22;2.92;;;2.22;;
6735;SDS011;3405;50.576;12.364;2023-04-20T10:22:50;2.80;;;2.20;;
6735;SDS011;3405;50.576;12.364;2023-04-20T10:25:17;4.00;;;2.25;;
6735;SDS011;3405;50.576;12.364;2023-04-20T10:27:54;2.17;;;1.90;;
6735;SDS011;3405;50.576;12.364;2023-04-20T10:30:20;2.70;;;2.28;;
6735;SDS011;3405;50.576;12.364;2023-04-20T10:32:47;3.50;;;2.00;;
6735;SDS011;3405;50.576;12.364;2023-04-20T10:35:12;2.80;;;2.17;;
6735;SDS011;3405;50.576;12.364;2023-04-20T10:37:46;2.20;;;1.95;;
6735;SDS011;3405;50.576;12.364;2023-04-20T10:40:13;2.50;;;2.25;;
6735;SDS011;3405;50.576;12.364;2023-04-20T10:42:42;3.00;;;2.17;;
6735;SDS011;3405;50.576;12.364;2023-04-20T10:45:08;3.60;;;2.75;;
6735;SDS011;3405;50.576;12.364;2023-04-20T10:47:35;3.13;;;2.80;;
6735;SDS011;3405;50.576;12.364;2023-04-20T10:52:38;4.63;;;2.40;;
6735;SDS011;3405;50.576;12.364;2023-04-20T10:55:04;3.53;;;2.70;;
6735;SDS011;3405;50.576;12.364;2023-04-20T10:57:31;2.35;;;2.15;;
6735;SDS011;3405;50.576;12.364;2023-04-20T10:59:57;3.00;;;2.45;;
6735;SDS011;3405;50.576;12.364;2023-04-20T11:02:23;3.03;;;2.47;;
6735;SDS011;3405;50.576;12.364;2023-04-20T11:04:50;2.83;;;2.20;;
6735;SDS011;3405;50.576;12.364;2023-04-20T11:07:17;3.05;;;2.30;;
6735;SDS011;3405;50.576;12.364;2023-04-20T11:09:44;2.50;;;2.13;;
6735;SDS011;3405;50.576;12.364;2023-04-20T11:12:17;2.42;;;2.20;;
6735;SDS011;3405;50.576;12.364;2023-04-20T11:14:53;3.38;;;2.10;;
6735;SDS011;3405;50.576;12.364;2023-04-20T11:17:20;2.60;;;2.40;;
6735;SDS011;3405;50.576;12.364;2023-04-20T11:20:03;2.55;;;2.35;;
6735;SDS011;3405;50.576;12.364;2023-04-20T11:22:30;2.03;;;1.83;;
6735;SDS011;3405;50.576;12.364;2023-04-20T11:25:03;3.03;;;2.10;;
6735;SDS011;3405;50.576;12.364;2023-04-20T11:27:32;3.53;;;2.47;;
6735;SDS011;3405;50.576;12.364;2023-04-20T11:29:58;3.05;;;1.83;;
6735;SDS011;3405;50.576;12.364;2023-04-20T11:32:29;2.45;;;2.25;;
6735;SDS011;3405;50.576;12.364;2023-04-20T11:34:59;3.25;;;2.13;;
6735;SDS011;3405;50.576;12.364;2023-04-20T11:37:25;3.60;;;2.05;;
6735;SDS011;3405;50.576;12.364;2023-04-20T11:39:58;2.17;;;1.98;;
6735;SDS011;3405;50.576;12.364;2023-04-20T11:42:24;4.22;;;2.13;;
6735;SDS011;3405;50.576;12.364;2023-04-20T11:44:51;2.22;;;1.95;;
6735;SDS011;3405;50.576;12.364;2023-04-20T11:47:17;2.15;;;1.95;;
6735;SDS011;3405;50.576;12.364;2023-04-20T11:49:43;3.08;;;2.05;;
6735;SDS011;3405;50.576;12.364;2023-04-20T11:52:09;2.20;;;2.00;;
6735;SDS011;3405;50.576;12.364;2023-04-20T11:54:35;3.58;;;2.08;;
6735;SDS011;3405;50.576;12.364;2023-04-20T11:57:01;2.13;;;1.92;;
6735;SDS011;3405;50.576;12.364;2023-04-20T11:59:27;2.28;;;2.00;;
6735;SDS011;3405;50.576;12.364;2023-04-20T12:01:53;2.08;;;1.65;;
6735;SDS011;3405;50.576;12.364;2023-04-20T12:04:19;2.15;;;1.95;;
6735;SDS011;3405;50.576;12.364;2023-04-20T12:06:45;2.38;;;2.05;;
6735;SDS011;3405;50.576;12.364;2023-04-20T12:09:11;2.10;;;1.98;;
6735;SDS011;3405;50.576;12.364;2023-04-20T12:11:37;1.85;;;1.73;;
6735;SDS011;3405;50.576;12.364;2023-04-20T12:14:03;2.08;;;1.88;;
6735;SDS011;3405;50.576;12.364;2023-04-20T12:16:29;2.22;;;2.00;;
6735;SDS011;3405;50.576;12.364;2023-04-20T12:18:55;2.30;;;1.83;;
6735;SDS011;3405;50.576;12.364;2023-04-20T12:21:21;2.70;;;1.73;;
6735;SDS011;3405;50.576;12.364;2023-04-20T12:23:46;1.98;;;1.75;;
6735;SDS011;3405;50.576;12.364;2023-04-20T12:26:14;1.90;;;1.73;;
6735;SDS011;3405;50.576;12.364;2023-04-20T12:28:40;2.33;;;2.13;;
6735;SDS011;3405;50.576;12.364;2023-04-20T12:31:09;2.70;;;1.98;;
6735;SDS011;3405;50.576;12.364;2023-04-20T12:33:34;2.20;;;2.00;;
6735;SDS011;3405;50.576;12.364;2023-04-20T12:36:00;2.38;;;2.17;;
6735;SDS011;3405;50.576;12.364;2023-04-20T12:38:26;2.25;;;1.77;;
6735;SDS011;3405;50.576;12.364;2023-04-20T12:40:52;2.10;;;1.90;;
6735;SDS011;3405;50.576;12.364;2023-04-20T12:43:18;2.38;;;1.85;;
6735;SDS011;3405;50.576;12.364;2023-04-20T12:45:44;3.42;;;1.83;;
6735;SDS011;3405;50.576;12.364;2023-04-20T12:48:12;2.15;;;1.85;;
6735;SDS011;3405;50.576;12.364;2023-04-20T12:50:37;1.98;;;1.77;;
6735;SDS011;3405;50.576;12.364;2023-04-20T12:53:03;1.88;;;1.73;;
6735;SDS011;3405;50.576;12.364;2023-04-20T12:55:29;2.20;;;2.00;;
6735;SDS011;3405;50.576;12.364;2023-04-20T12:57:55;2.55;;;1.90;;
6735;SDS011;3405;50.576;12.364;2023-04-20T13:00:21;2.20;;;1.80;;
6735;SDS011;3405;50.576;12.364;2023-04-20T13:02:48;2.15;;;1.70;;
6735;SDS011;3405;50.576;12.364;2023-04-20T13:05:14;2.55;;;1.67;;
6735;SDS011;3405;50.576;12.364;2023-04-20T13:07:40;3.65;;;1.95;;
6735;SDS011;3405;50.576;12.364;2023-04-20T13:10:06;2.20;;;1.90;;
6735;SDS011;3405;50.576;12.364;2023-04-20T13:12:32;1.77;;;1.60;;
6735;SDS011;3405;50.576;12.364;2023-04-20T13:14:58;3.50;;;2.05;;
6735;SDS011;3405;50.576;12.364;2023-04-20T13:17:24;1.95;;;1.60;;
6735;SDS011;3405;50.576;12.364;2023-04-20T13:19:50;2.65;;;2.10;;
6735;SDS011;3405;50.576;12.364;2023-04-20T13:22:16;2.15;;;1.92;;
6735;SDS011;3405;50.576;12.364;2023-04-20T13:24:42;6.70;;;2.17;;
6735;SDS011;3405;50.576;12.364;2023-04-20T13:27:08;2.00;;;1.90;;
6735;SDS011;3405;50.576;12.364;2023-04-20T13:29:34;1.77;;;1.65;;
6735;SDS011;3405;50.576;12.364;2023-04-20T13:32:00;2.63;;;2.20;;
6735;SDS011;3405;50.576;12.364;2023-04-20T13:34:26;3.33;;;2.40;;
6735;SDS011;3405;50.576;12.364;2023-04-20T13:36:52;8.80;;;2.15;;
6735;SDS011;3405;50.576;12.364;2023-04-20T13:39:18;6.53;;;2.20;;
6735;SDS011;3405;50.576;12.364;2023-04-20T13:41:46;4.88;;;2.17;;
6735;SDS011;3405;50.576;12.364;2023-04-20T13:44:13;3.58;;;1.95;;
6735;SDS011;3405;50.576;12.364;2023-04-20T13:46:40;6.15;;;1.92;;
6735;SDS011;3405;50.576;12.364;2023-04-20T13:49:07;5.55;;;2.17;;
6735;SDS011;3405;50.576;12.364;2023-04-20T13:51:33;4.82;;;2.10;;
6735;SDS011;3405;50.576;12.364;2023-04-20T13:53:59;5.85;;;2.53;;
6735;SDS011;3405;50.576;12.364;2023-04-20T13:56:25;6.68;;;2.55;;
6735;SDS011;3405;50.576;12.364;2023-04-20T13:58:51;3.83;;;2.30;;
6735;SDS011;3405;50.576;12.364;2023-04-20T14:01:17;4.30;;;2.25;;
6735;SDS011;3405;50.576;12.364;2023-04-20T14:03:43;6.65;;;2.50;;
6735;SDS011;3405;50.576;12.364;2023-04-20T14:06:09;3.65;;;2.17;;
6735;SDS011;3405;50.576;12.364;2023-04-20T14:08:35;5.25;;;2.60;;
6735;SDS011;3405;50.576;12.364;2023-04-20T14:11:01;5.93;;;2.20;;
6735;SDS011;3405;50.576;12.364;2023-04-20T14:13:27;3.83;;;1.98;;
6735;SDS011;3405;50.576;12.364;2023-04-20T14:15:53;4.25;;;2.45;;
6735;SDS011;3405;50.576;12.364;2023-04-20T14:18:19;3.13;;;2.83;;
6735;SDS011;3405;50.576;12.364;2023-04-20T14:20:45;6.38;;;2.45;;
6735;SDS011;3405;50.576;12.364;2023-04-20T14:23:13;3.10;;;2.42;;
6735;SDS011;3405;50.576;12.364;2023-04-20T14:25:39;3.67;;;2.40;;
6735;SDS011;3405;50.576;12.364;2023-04-20T14:28:05;5.80;;;2.60;;
6735;SDS011;3405;50.576;12.364;2023-04-20T14:30:31;3.40;;;2.50;;
6735;SDS011;3405;50.576;12.364;2023-04-20T14:32:58;2.97;;;2.38;;
6735;SDS011;3405;50.576;12.364;2023-04-20T14:35:25;3.38;;;2.72;;
6735;SDS011;3405;50.576;12.364;2023-04-20T14:37:51;3.10;;;2.80;;
6735;SDS011;3405;50.576;12.364;2023-04-20T14:40:17;3.63;;;2.70;;
6735;SDS011;3405;50.576;12.364;2023-04-20T14:42:44;4.43;;;2.80;;
6735;SDS011;3405;50.576;12.364;2023-04-20T14:45:10;3.50;;;3.00;;
6735;SDS011;3405;50.576;12.364;2023-04-20T14:47:36;3.15;;;2.85;;
6735;SDS011;3405;50.576;12.364;2023-04-20T14:50:02;4.68;;;2.72;;
6735;SDS011;3405;50.576;12.364;2023-04-20T14:52:28;5.78;;;2.92;;
6735;SDS011;3405;50.576;12.364;2023-04-20T14:54:54;3.90;;;3.10;;
6735;SDS011;3405;50.576;12.364;2023-04-20T14:57:20;3.28;;;2.97;;